sensor_id;sensor_type;location;lat;lon;timestamp;temperature;humidity
14727;DHT22;7454;51.256;8.176;2023-09-30T00:01:00;14.40;77.60
14727;DHT22;7454;51.256;8.176;2023-09-30T00:03:27;14.60;77.80
14727;DHT22;7454;51.256;8.176;2023-09-30T00:05:54;14.30;77.60
14727;DHT22;7454;51.256;8.176;2023-09-30T00:08:20;14.30;77.50
14727;DHT22;7454;51.256;8.176;2023-09-30T00:10:46;14.30;77.60
14727;DHT22;7454;51.256;8.176;2023-09-30T00:13:12;14.30;77.60
14727;DHT22;7454;51.256;8.176;2023-09-30T00:15:38;14.30;77.60
14727;DHT22;7454;51.256;8.176;2023-09-30T00:18:04;14.40;77.80
14727;DHT22;7454;51.256;8.176;2023-09-30T00:20:30;14.20;77.60
14727;DHT22;7454;51.256;8.176;2023-09-30T00:22:56;14.10;77.50
14727;DHT22;7454;51.256;8.176;2023-09-30T00:25:21;14.20;77.60
14727;DHT22;7454;51.256;8.176;2023-09-30T00:27:48;14.20;77.60
14727;DHT22;7454;51.256;8.176;2023-09-30T00:30:14;14.10;77.50
14727;DHT22;7454;51.256;8.176;2023-09-30T00:32:40;14.10;77.50
14727;DHT22;7454;51.256;8.176;2023-09-30T00:35:06;14.10;77.50
14727;DHT22;7454;51.256;8.176;2023-09-30T00:37:39;14.00;77.60
14727;DHT22;7454;51.256;8.176;2023-09-30T00:40:07;14.00;77.60
14727;DHT22;7454;51.256;8.176;2023-09-30T00:42:40;14.00;77.60
14727;DHT22;7454;51.256;8.176;2023-09-30T00:45:07;14.00;77.50
14727;DHT22;7454;51.256;8.176;2023-09-30T00:47:36;13.90;77.50
14727;DHT22;7454;51.256;8.176;2023-09-30T00:50:02;13.90;77.60
14727;DHT22;7454;51.256;8.176;2023-09-30T00:52:30;13.90;77.60
14727;DHT22;7454;51.256;8.176;2023-09-30T00:54:57;13.90;77.60
14727;DHT22;7454;51.256;8.176;2023-09-30T00:57:23;13.80;77.60
14727;DHT22;7454;51.256;8.176;2023-09-30T00:59:49;13.80;77.60
14727;DHT22;7454;51.256;8.176;2023-09-30T01:02:17;13.80;77.50
14727;DHT22;7454;51.256;8.176;2023-09-30T01:04:43;13.70;77.50
14727;DHT22;7454;51.256;8.176;2023-09-30T01:07:09;13.80;77.50
14727;DHT22;7454;51.256;8.176;2023-09-30T01:09:36;13.70;77.50
14727;DHT22;7454;51.256;8.176;2023-09-30T01:12:03;13.60;77.50
14727;DHT22;7454;51.256;8.176;2023-09-30T01:14:30;13.60;77.50
14727;DHT22;7454;51.256;8.176;2023-09-30T01:16:57;13.60;77.50
14727;DHT22;7454;51.256;8.176;2023-09-30T01:19:23;13.70;77.60
14727;DHT22;7454;51.256;8.176;2023-09-30T01:21:59;13.60;77.60
14727;DHT22;7454;51.256;8.176;2023-09-30T01:24:28;13.70;77.60
14727;DHT22;7454;51.256;8.176;2023-09-30T01:26:57;13.60;77.60
14727;DHT22;7454;51.256;8.176;2023-09-30T01:29:23;13.60;77.70
14727;DHT22;7454;51.256;8.176;2023-09-30T01:31:51;13.60;77.50
14727;DHT22;7454;51.256;8.176;2023-09-30T01:34:17;13.60;77.70
14727;DHT22;7454;51.256;8.176;2023-09-30T01:36:43;13.60;77.50
14727;DHT22;7454;51.256;8.176;2023-09-30T01:39:09;13.60;77.60
14727;DHT22;7454;51.256;8.176;2023-09-30T01:41:36;13.50;77.50
14727;DHT22;7454;51.256;8.176;2023-09-30T01:44:05;13.50;77.50
14727;DHT22;7454;51.256;8.176;2023-09-30T01:46:31;13.50;77.40
14727;DHT22;7454;51.256;8.176;2023-09-30T01:48:57;13.40;77.60
14727;DHT22;7454;51.256;8.176;2023-09-30T01:51:23;13.40;77.50
14727;DHT22;7454;51.256;8.176;2023-09-30T01:53:49;13.40;77.50
14727;DHT22;7454;51.256;8.176;2023-09-30T01:56:16;13.50;77.60
14727;DHT22;7454;51.256;8.176;2023-09-30T01:58:41;13.30;77.40
14727;DHT22;7454;51.256;8.176;2023-09-30T02:01:08;13.50;77.60
14727;DHT22;7454;51.256;8.176;2023-09-30T02:03:34;13.40;77.40
14727;DHT22;7454;51.256;8.176;2023-09-30T02:06:00;13.40;77.50
14727;DHT22;7454;51.256;8.176;2023-09-30T02:08:26;13.30;77.40
14727;DHT22;7454;51.256;8.176;2023-09-30T02:10:51;13.10;77.30
14727;DHT22;7454;51.256;8.176;2023-09-30T02:13:18;13.20;77.40
14727;DHT22;7454;51.256;8.176;2023-09-30T02:15:44;13.20;77.30
14727;DHT22;7454;51.256;8.176;2023-09-30T02:18:09;13.20;77.40
14727;DHT22;7454;51.256;8.176;2023-09-30T02:20:36;13.30;77.40
14727;DHT22;7454;51.256;8.176;2023-09-30T02:23:05;13.30;77.40
14727;DHT22;7454;51.256;8.176;2023-09-30T02:25:31;13.20;77.30
14727;DHT22;7454;51.256;8.176;2023-09-30T02:27:58;13.20;77.30
14727;DHT22;7454;51.256;8.176;2023-09-30T02:30:24;13.10;77.30
14727;DHT22;7454;51.256;8.176;2023-09-30T02:32:51;13.20;77.30
14727;DHT22;7454;51.256;8.176;2023-09-30T02:35:17;13.10;77.20
14727;DHT22;7454;51.256;8.176;2023-09-30T02:37:44;13.20;77.40
14727;DHT22;7454;51.256;8.176;2023-09-30T02:40:10;13.20;77.30
14727;DHT22;7454;51.256;8.176;2023-09-30T02:42:39;13.30;77.30
14727;DHT22;7454;51.256;8.176;2023-09-30T02:45:05;13.10;77.20
14727;DHT22;7454;51.256;8.176;2023-09-30T02:47:36;13.30;77.40
14727;DHT22;7454;51.256;8.176;2023-09-30T02:50:04;13.30;77.40
14727;DHT22;7454;51.256;8.176;2023-09-30T02:52:31;13.20;77.30
14727;DHT22;7454;51.256;8.176;2023-09-30T02:54:58;13.20;77.30
14727;DHT22;7454;51.256;8.176;2023-09-30T02:57:24;13.20;77.20
14727;DHT22;7454;51.256;8.176;2023-09-30T02:59:50;13.10;77.20
14727;DHT22;7454;51.256;8.176;2023-09-30T03:02:17;13.10;77.20
14727;DHT22;7454;51.256;8.176;2023-09-30T03:04:43;12.90;77.30
14727;DHT22;7454;51.256;8.176;2023-09-30T03:07:10;13.00;77.30
14727;DHT22;7454;51.256;8.176;2023-09-30T03:09:36;13.00;77.30
14727;DHT22;7454;51.256;8.176;2023-09-30T03:12:02;12.90;77.30
14727;DHT22;7454;51.256;8.176;2023-09-30T03:14:30;12.90;77.30
14727;DHT22;7454;51.256;8.176;2023-09-30T03:16:57;12.80;77.20
14727;DHT22;7454;51.256;8.176;2023-09-30T03:19:23;13.00;77.20
14727;DHT22;7454;51.256;8.176;2023-09-30T03:21:49;12.80;77.00
14727;DHT22;7454;51.256;8.176;2023-09-30T03:24:15;12.90;77.00
14727;DHT22;7454;51.256;8.176;2023-09-30T03:26:41;12.90;77.10
14727;DHT22;7454;51.256;8.176;2023-09-30T03:29:07;12.80;77.10
14727;DHT22;7454;51.256;8.176;2023-09-30T03:31:34;12.80;77.10
14727;DHT22;7454;51.256;8.176;2023-09-30T03:34:01;12.70;77.00
14727;DHT22;7454;51.256;8.176;2023-09-30T03:36:28;12.80;77.10
14727;DHT22;7454;51.256;8.176;2023-09-30T03:38:54;12.70;77.00
14727;DHT22;7454;51.256;8.176;2023-09-30T03:41:20;12.80;77.00
14727;DHT22;7454;51.256;8.176;2023-09-30T03:43:45;12.60;76.90
14727;DHT22;7454;51.256;8.176;2023-09-30T03:46:12;12.60;76.90
14727;DHT22;7454;51.256;8.176;2023-09-30T03:48:38;12.60;76.90
14727;DHT22;7454;51.256;8.176;2023-09-30T03:51:09;12.50;77.00
14727;DHT22;7454;51.256;8.176;2023-09-30T03:53:38;12.60;77.00
14727;DHT22;7454;51.256;8.176;2023-09-30T03:56:03;12.50;77.00
14727;DHT22;7454;51.256;8.176;2023-09-30T03:58:29;12.60;77.00
14727;DHT22;7454;51.256;8.176;2023-09-30T04:00:55;12.50;77.00
14727;DHT22;7454;51.256;8.176;2023-09-30T04:03:21;12.50;77.00
14727;DHT22;7454;51.256;8.176;2023-09-30T04:05:47;12.60;77.00
14727;DHT22;7454;51.256;8.176;2023-09-30T04:08:16;12.50;76.90
14727;DHT22;7454;51.256;8.176;2023-09-30T04:10:42;12.50;76.80
14727;DHT22;7454;51.256;8.176;2023-09-30T04:13:09;12.40;76.80
14727;DHT22;7454;51.256;8.176;2023-09-30T04:15:37;12.40;76.80
14727;DHT22;7454;51.256;8.176;2023-09-30T04:18:03;12.30;76.80
14727;DHT22;7454;51.256;8.176;2023-09-30T04:20:30;12.40;76.80
14727;DHT22;7454;51.256;8.176;2023-09-30T04:22:57;12.40;76.90
14727;DHT22;7454;51.256;8.176;2023-09-30T04:25:23;12.30;76.80
14727;DHT22;7454;51.256;8.176;2023-09-30T04:27:52;12.30;76.80
14727;DHT22;7454;51.256;8.176;2023-09-30T04:30:18;12.20;76.70
14727;DHT22;7454;51.256;8.176;2023-09-30T04:32:44;12.20;76.70
14727;DHT22;7454;51.256;8.176;2023-09-30T04:35:10;12.20;76.70
14727;DHT22;7454;51.256;8.176;2023-09-30T04:37:36;12.20;76.70
14727;DHT22;7454;51.256;8.176;2023-09-30T04:40:06;12.30;76.70
14727;DHT22;7454;51.256;8.176;2023-09-30T04:42:36;12.30;76.70
14727;DHT22;7454;51.256;8.176;2023-09-30T04:45:05;12.40;76.70
14727;DHT22;7454;51.256;8.176;2023-09-30T04:47:35;12.30;76.70
14727;DHT22;7454;51.256;8.176;2023-09-30T04:50:07;12.30;76.70
14727;DHT22;7454;51.256;8.176;2023-09-30T04:52:34;12.20;76.80
14727;DHT22;7454;51.256;8.176;2023-09-30T04:55:00;12.20;76.70
14727;DHT22;7454;51.256;8.176;2023-09-30T04:57:26;12.00;76.60
14727;DHT22;7454;51.256;8.176;2023-09-30T04:59:52;12.10;76.80
14727;DHT22;7454;51.256;8.176;2023-09-30T05:02:18;12.00;76.70
14727;DHT22;7454;51.256;8.176;2023-09-30T05:04:43;12.10;76.70
14727;DHT22;7454;51.256;8.176;2023-09-30T05:07:09;12.00;76.70
14727;DHT22;7454;51.256;8.176;2023-09-30T05:09:35;12.00;76.80
14727;DHT22;7454;51.256;8.176;2023-09-30T05:12:01;12.00;76.80
14727;DHT22;7454;51.256;8.176;2023-09-30T05:14:29;12.00;76.80
14727;DHT22;7454;51.256;8.176;2023-09-30T05:16:55;12.00;76.80
14727;DHT22;7454;51.256;8.176;2023-09-30T05:19:22;12.00;76.80
14727;DHT22;7454;51.256;8.176;2023-09-30T05:21:48;12.00;77.00
14727;DHT22;7454;51.256;8.176;2023-09-30T05:24:14;12.00;76.90
14727;DHT22;7454;51.256;8.176;2023-09-30T05:26:44;12.10;77.00
14727;DHT22;7454;51.256;8.176;2023-09-30T05:29:10;11.90;77.00
14727;DHT22;7454;51.256;8.176;2023-09-30T05:31:36;12.10;77.10
14727;DHT22;7454;51.256;8.176;2023-09-30T05:34:04;12.10;77.20
14727;DHT22;7454;51.256;8.176;2023-09-30T05:36:30;12.00;77.30
14727;DHT22;7454;51.256;8.176;2023-09-30T05:38:56;12.10;77.40
14727;DHT22;7454;51.256;8.176;2023-09-30T05:41:21;12.10;77.40
14727;DHT22;7454;51.256;8.176;2023-09-30T05:43:47;12.00;77.40
14727;DHT22;7454;51.256;8.176;2023-09-30T05:46:14;12.10;77.50
14727;DHT22;7454;51.256;8.176;2023-09-30T05:48:41;12.10;77.50
14727;DHT22;7454;51.256;8.176;2023-09-30T05:51:07;12.20;77.50
14727;DHT22;7454;51.256;8.176;2023-09-30T05:53:33;12.10;77.50
14727;DHT22;7454;51.256;8.176;2023-09-30T05:55:59;12.00;77.50
14727;DHT22;7454;51.256;8.176;2023-09-30T05:58:25;12.10;77.50
14727;DHT22;7454;51.256;8.176;2023-09-30T06:00:52;12.00;77.60
14727;DHT22;7454;51.256;8.176;2023-09-30T06:03:18;12.10;77.70
14727;DHT22;7454;51.256;8.176;2023-09-30T06:05:47;12.00;77.60
14727;DHT22;7454;51.256;8.176;2023-09-30T06:08:14;12.10;77.70
14727;DHT22;7454;51.256;8.176;2023-09-30T06:10:43;12.10;77.80
14727;DHT22;7454;51.256;8.176;2023-09-30T06:13:09;12.20;77.90
14727;DHT22;7454;51.256;8.176;2023-09-30T06:15:39;12.20;77.90
14727;DHT22;7454;51.256;8.176;2023-09-30T06:18:06;12.20;77.90
14727;DHT22;7454;51.256;8.176;2023-09-30T06:20:31;12.20;77.90
14727;DHT22;7454;51.256;8.176;2023-09-30T06:22:58;12.40;77.90
14727;DHT22;7454;51.256;8.176;2023-09-30T06:25:25;12.20;77.90
14727;DHT22;7454;51.256;8.176;2023-09-30T06:27:53;12.20;77.90
14727;DHT22;7454;51.256;8.176;2023-09-30T06:30:20;12.30;78.00
14727;DHT22;7454;51.256;8.176;2023-09-30T06:32:46;12.40;78.00
14727;DHT22;7454;51.256;8.176;2023-09-30T06:35:12;12.30;78.00
14727;DHT22;7454;51.256;8.176;2023-09-30T06:37:39;12.30;78.00
14727;DHT22;7454;51.256;8.176;2023-09-30T06:40:06;12.30;78.00
14727;DHT22;7454;51.256;8.176;2023-09-30T06:42:35;12.30;78.00
14727;DHT22;7454;51.256;8.176;2023-09-30T06:45:01;12.40;78.10
14727;DHT22;7454;51.256;8.176;2023-09-30T06:47:31;12.40;78.10
14727;DHT22;7454;51.256;8.176;2023-09-30T06:50:02;12.40;78.10
14727;DHT22;7454;51.256;8.176;2023-09-30T06:52:33;12.40;78.00
14727;DHT22;7454;51.256;8.176;2023-09-30T06:55:01;12.40;77.90
14727;DHT22;7454;51.256;8.176;2023-09-30T06:57:31;12.40;78.00
14727;DHT22;7454;51.256;8.176;2023-09-30T06:59:57;12.40;78.10
14727;DHT22;7454;51.256;8.176;2023-09-30T07:02:23;12.50;78.20
14727;DHT22;7454;51.256;8.176;2023-09-30T07:04:49;12.60;78.20
14727;DHT22;7454;51.256;8.176;2023-09-30T07:07:15;12.60;78.00
14727;DHT22;7454;51.256;8.176;2023-09-30T07:09:42;12.70;78.10
14727;DHT22;7454;51.256;8.176;2023-09-30T07:12:08;12.60;78.10
14727;DHT22;7454;51.256;8.176;2023-09-30T07:14:34;12.80;78.10
14727;DHT22;7454;51.256;8.176;2023-09-30T07:16:59;12.80;78.10
14727;DHT22;7454;51.256;8.176;2023-09-30T07:19:25;12.90;78.10
14727;DHT22;7454;51.256;8.176;2023-09-30T07:21:51;13.00;78.10
14727;DHT22;7454;51.256;8.176;2023-09-30T07:24:16;13.10;78.10
14727;DHT22;7454;51.256;8.176;2023-09-30T07:26:42;13.20;78.00
14727;DHT22;7454;51.256;8.176;2023-09-30T07:29:08;13.20;77.90
14727;DHT22;7454;51.256;8.176;2023-09-30T07:31:35;13.20;78.00
14727;DHT22;7454;51.256;8.176;2023-09-30T07:34:01;13.20;78.00
14727;DHT22;7454;51.256;8.176;2023-09-30T07:36:27;13.30;77.90
14727;DHT22;7454;51.256;8.176;2023-09-30T07:38:53;13.20;78.00
14727;DHT22;7454;51.256;8.176;2023-09-30T07:41:19;13.20;77.90
14727;DHT22;7454;51.256;8.176;2023-09-30T07:43:45;13.20;77.80
14727;DHT22;7454;51.256;8.176;2023-09-30T07:46:11;13.20;77.90
14727;DHT22;7454;51.256;8.176;2023-09-30T07:48:37;13.30;78.00
14727;DHT22;7454;51.256;8.176;2023-09-30T07:51:05;13.30;77.90
14727;DHT22;7454;51.256;8.176;2023-09-30T07:53:34;13.60;78.10
14727;DHT22;7454;51.256;8.176;2023-09-30T07:56:00;13.50;78.10
14727;DHT22;7454;51.256;8.176;2023-09-30T07:58:26;13.50;78.00
14727;DHT22;7454;51.256;8.176;2023-09-30T08:00:52;13.40;77.90
14727;DHT22;7454;51.256;8.176;2023-09-30T08:03:17;13.50;78.00
14727;DHT22;7454;51.256;8.176;2023-09-30T08:05:43;13.60;78.10
14727;DHT22;7454;51.256;8.176;2023-09-30T08:08:08;13.70;78.10
14727;DHT22;7454;51.256;8.176;2023-09-30T08:10:34;13.80;78.10
14727;DHT22;7454;51.256;8.176;2023-09-30T08:13:02;13.70;78.00
14727;DHT22;7454;51.256;8.176;2023-09-30T08:15:28;13.80;78.00
14727;DHT22;7454;51.256;8.176;2023-09-30T08:17:54;13.70;77.90
14727;DHT22;7454;51.256;8.176;2023-09-30T08:20:19;14.00;78.10
14727;DHT22;7454;51.256;8.176;2023-09-30T08:22:45;14.00;78.00
14727;DHT22;7454;51.256;8.176;2023-09-30T08:25:11;14.10;77.90
14727;DHT22;7454;51.256;8.176;2023-09-30T08:27:37;13.90;77.80
14727;DHT22;7454;51.256;8.176;2023-09-30T08:30:04;13.90;77.80
14727;DHT22;7454;51.256;8.176;2023-09-30T08:32:36;14.00;77.90
14727;DHT22;7454;51.256;8.176;2023-09-30T08:35:03;14.00;78.10
14727;DHT22;7454;51.256;8.176;2023-09-30T08:37:29;14.10;78.00
14727;DHT22;7454;51.256;8.176;2023-09-30T08:39:55;14.10;78.10
14727;DHT22;7454;51.256;8.176;2023-09-30T08:42:21;14.20;78.00
14727;DHT22;7454;51.256;8.176;2023-09-30T08:44:47;14.20;78.00
14727;DHT22;7454;51.256;8.176;2023-09-30T08:47:14;14.30;78.10
14727;DHT22;7454;51.256;8.176;2023-09-30T08:49:40;14.20;78.10
14727;DHT22;7454;51.256;8.176;2023-09-30T08:52:06;14.40;78.00
14727;DHT22;7454;51.256;8.176;2023-09-30T08:54:33;14.50;78.10
14727;DHT22;7454;51.256;8.176;2023-09-30T08:56:58;14.50;78.00
14727;DHT22;7454;51.256;8.176;2023-09-30T08:59:25;14.60;77.90
14727;DHT22;7454;51.256;8.176;2023-09-30T09:01:52;14.50;77.90
14727;DHT22;7454;51.256;8.176;2023-09-30T09:04:17;14.50;77.90
14727;DHT22;7454;51.256;8.176;2023-09-30T09:06:43;14.70;78.00
14727;DHT22;7454;51.256;8.176;2023-09-30T09:09:13;14.70;78.10
14727;DHT22;7454;51.256;8.176;2023-09-30T09:11:43;14.80;78.10
14727;DHT22;7454;51.256;8.176;2023-09-30T09:14:09;14.80;78.10
14727;DHT22;7454;51.256;8.176;2023-09-30T09:16:35;14.90;78.10
14727;DHT22;7454;51.256;8.176;2023-09-30T09:19:13;14.90;77.90
14727;DHT22;7454;51.256;8.176;2023-09-30T09:21:52;15.00;78.10
14727;DHT22;7454;51.256;8.176;2023-09-30T09:27:10;15.20;77.90
14727;DHT22;7454;51.256;8.176;2023-09-30T09:29:37;15.20;77.90
14727;DHT22;7454;51.256;8.176;2023-09-30T09:32:11;15.20;77.90
14727;DHT22;7454;51.256;8.176;2023-09-30T09:34:38;15.30;77.90
14727;DHT22;7454;51.256;8.176;2023-09-30T09:39:48;15.40;77.80
14727;DHT22;7454;51.256;8.176;2023-09-30T09:42:24;15.30;77.80
14727;DHT22;7454;51.256;8.176;2023-09-30T09:44:57;15.40;77.70
14727;DHT22;7454;51.256;8.176;2023-09-30T09:47:25;15.50;77.90
14727;DHT22;7454;51.256;8.176;2023-09-30T09:49:51;15.60;77.90
14727;DHT22;7454;51.256;8.176;2023-09-30T09:52:19;15.70;77.90
14727;DHT22;7454;51.256;8.176;2023-09-30T09:54:45;15.60;77.70
14727;DHT22;7454;51.256;8.176;2023-09-30T09:57:12;15.80;77.90
14727;DHT22;7454;51.256;8.176;2023-09-30T09:59:41;15.70;77.70
14727;DHT22;7454;51.256;8.176;2023-09-30T10:02:11;15.90;77.50
14727;DHT22;7454;51.256;8.176;2023-09-30T10:04:48;15.80;77.50
14727;DHT22;7454;51.256;8.176;2023-09-30T10:07:22;15.90;77.70
14727;DHT22;7454;51.256;8.176;2023-09-30T10:09:51;16.00;77.60
14727;DHT22;7454;51.256;8.176;2023-09-30T10:12:18;16.00;77.30
14727;DHT22;7454;51.256;8.176;2023-09-30T10:14:44;16.00;77.20
14727;DHT22;7454;51.256;8.176;2023-09-30T10:17:10;15.90;77.30
14727;DHT22;7454;51.256;8.176;2023-09-30T10:19:38;15.80;77.20
14727;DHT22;7454;51.256;8.176;2023-09-30T10:22:30;15.90;77.40
14727;DHT22;7454;51.256;8.176;2023-09-30T10:24:57;15.90;77.50
14727;DHT22;7454;51.256;8.176;2023-09-30T10:30:05;15.90;77.30
14727;DHT22;7454;51.256;8.176;2023-09-30T10:40:51;15.90;77.00
14727;DHT22;7454;51.256;8.176;2023-09-30T10:45:59;15.80;76.90
14727;DHT22;7454;51.256;8.176;2023-09-30T10:50:57;15.80;76.80
14727;DHT22;7454;51.256;8.176;2023-09-30T10:53:26;15.80;76.90
14727;DHT22;7454;51.256;8.176;2023-09-30T10:55:59;15.80;77.00
14727;DHT22;7454;51.256;8.176;2023-09-30T11:01:06;15.80;77.00
14727;DHT22;7454;51.256;8.176;2023-09-30T11:03:33;15.80;76.80
14727;DHT22;7454;51.256;8.176;2023-09-30T11:05:59;15.80;76.90
14727;DHT22;7454;51.256;8.176;2023-09-30T11:08:25;15.90;77.00
14727;DHT22;7454;51.256;8.176;2023-09-30T11:10:54;15.80;76.90
14727;DHT22;7454;51.256;8.176;2023-09-30T11:13:20;15.80;76.90
14727;DHT22;7454;51.256;8.176;2023-09-30T11:15:46;15.80;76.80
14727;DHT22;7454;51.256;8.176;2023-09-30T11:18:15;16.00;76.90
14727;DHT22;7454;51.256;8.176;2023-09-30T11:20:42;15.90;76.60
14727;DHT22;7454;51.256;8.176;2023-09-30T11:23:09;15.80;76.70
14727;DHT22;7454;51.256;8.176;2023-09-30T11:25:38;16.00;76.90
14727;DHT22;7454;51.256;8.176;2023-09-30T11:28:17;15.90;76.90
14727;DHT22;7454;51.256;8.176;2023-09-30T11:30:57;15.90;76.90
14727;DHT22;7454;51.256;8.176;2023-09-30T11:33:24;15.90;76.60
14727;DHT22;7454;51.256;8.176;2023-09-30T11:36:03;16.00;76.60
14727;DHT22;7454;51.256;8.176;2023-09-30T11:38:31;15.90;76.50
14727;DHT22;7454;51.256;8.176;2023-09-30T11:41:04;16.00;76.60
14727;DHT22;7454;51.256;8.176;2023-09-30T11:43:32;16.00;76.50
14727;DHT22;7454;51.256;8.176;2023-09-30T11:46:05;15.90;76.10
14727;DHT22;7454;51.256;8.176;2023-09-30T11:48:31;15.90;76.20
14727;DHT22;7454;51.256;8.176;2023-09-30T11:50:58;15.80;75.90
14727;DHT22;7454;51.256;8.176;2023-09-30T11:53:26;16.00;76.00
14727;DHT22;7454;51.256;8.176;2023-09-30T11:55:59;15.90;75.90
14727;DHT22;7454;51.256;8.176;2023-09-30T11:58:28;15.90;76.10
14727;DHT22;7454;51.256;8.176;2023-09-30T12:00:55;15.90;76.00
14727;DHT22;7454;51.256;8.176;2023-09-30T12:03:23;15.90;76.00
14727;DHT22;7454;51.256;8.176;2023-09-30T12:05:48;15.80;75.80
14727;DHT22;7454;51.256;8.176;2023-09-30T12:08:14;15.80;75.90
14727;DHT22;7454;51.256;8.176;2023-09-30T12:10:40;15.70;75.70
14727;DHT22;7454;51.256;8.176;2023-09-30T12:13:06;15.90;75.90
14727;DHT22;7454;51.256;8.176;2023-09-30T12:15:31;15.90;75.50
14727;DHT22;7454;51.256;8.176;2023-09-30T12:17:57;15.80;75.60
14727;DHT22;7454;51.256;8.176;2023-09-30T12:20:23;15.80;75.20
14727;DHT22;7454;51.256;8.176;2023-09-30T12:22:50;15.90;74.90
14727;DHT22;7454;51.256;8.176;2023-09-30T12:25:17;15.80;75.30
14727;DHT22;7454;51.256;8.176;2023-09-30T12:27:47;15.80;75.20
14727;DHT22;7454;51.256;8.176;2023-09-30T12:30:14;15.80;74.50
14727;DHT22;7454;51.256;8.176;2023-09-30T12:32:40;15.80;74.50
14727;DHT22;7454;51.256;8.176;2023-09-30T12:35:06;15.90;75.00
14727;DHT22;7454;51.256;8.176;2023-09-30T12:37:32;15.80;75.00
14727;DHT22;7454;51.256;8.176;2023-09-30T12:39:58;15.80;75.30
14727;DHT22;7454;51.256;8.176;2023-09-30T12:42:23;15.70;75.00
14727;DHT22;7454;51.256;8.176;2023-09-30T12:44:50;15.80;74.70
14727;DHT22;7454;51.256;8.176;2023-09-30T12:47:15;15.90;74.80
14727;DHT22;7454;51.256;8.176;2023-09-30T12:49:41;16.10;74.80
14727;DHT22;7454;51.256;8.176;2023-09-30T12:52:07;16.10;75.00
14727;DHT22;7454;51.256;8.176;2023-09-30T12:54:32;15.90;74.80
14727;DHT22;7454;51.256;8.176;2023-09-30T12:56:59;16.00;74.80
14727;DHT22;7454;51.256;8.176;2023-09-30T12:59:25;15.90;75.10
14727;DHT22;7454;51.256;8.176;2023-09-30T13:01:51;15.80;75.10
14727;DHT22;7454;51.256;8.176;2023-09-30T13:04:16;16.10;75.30
14727;DHT22;7454;51.256;8.176;2023-09-30T13:06:44;16.10;75.40
14727;DHT22;7454;51.256;8.176;2023-09-30T13:09:10;16.00;75.00
14727;DHT22;7454;51.256;8.176;2023-09-30T13:11:37;16.00;74.90
14727;DHT22;7454;51.256;8.176;2023-09-30T13:14:03;16.10;74.80
14727;DHT22;7454;51.256;8.176;2023-09-30T13:16:29;16.10;74.80
14727;DHT22;7454;51.256;8.176;2023-09-30T13:18:55;16.10;74.90
14727;DHT22;7454;51.256;8.176;2023-09-30T13:21:21;16.10;74.80
14727;DHT22;7454;51.256;8.176;2023-09-30T13:23:46;16.20;74.60
14727;DHT22;7454;51.256;8.176;2023-09-30T13:26:12;16.20;74.60
14727;DHT22;7454;51.256;8.176;2023-09-30T13:28:38;16.10;74.80
14727;DHT22;7454;51.256;8.176;2023-09-30T13:31:05;16.10;74.60
14727;DHT22;7454;51.256;8.176;2023-09-30T13:33:31;16.20;74.70
14727;DHT22;7454;51.256;8.176;2023-09-30T13:35:56;16.20;74.90
14727;DHT22;7454;51.256;8.176;2023-09-30T13:38:22;16.20;74.80
14727;DHT22;7454;51.256;8.176;2023-09-30T13:40:48;16.20;75.00
14727;DHT22;7454;51.256;8.176;2023-09-30T13:43:14;16.20;75.00
14727;DHT22;7454;51.256;8.176;2023-09-30T13:45:40;16.20;74.70
14727;DHT22;7454;51.256;8.176;2023-09-30T13:48:06;16.20;75.00
14727;DHT22;7454;51.256;8.176;2023-09-30T13:50:31;16.30;75.00
14727;DHT22;7454;51.256;8.176;2023-09-30T13:52:57;16.30;75.00
14727;DHT22;7454;51.256;8.176;2023-09-30T13:55:26;16.20;74.80
14727;DHT22;7454;51.256;8.176;2023-09-30T13:57:51;16.20;75.00
14727;DHT22;7454;51.256;8.176;2023-09-30T14:00:17;16.30;75.00
14727;DHT22;7454;51.256;8.176;2023-09-30T14:02:43;16.20;74.70
14727;DHT22;7454;51.256;8.176;2023-09-30T14:05:09;16.30;74.70
14727;DHT22;7454;51.256;8.176;2023-09-30T14:07:35;16.30;74.80
14727;DHT22;7454;51.256;8.176;2023-09-30T14:10:04;16.30;74.80
14727;DHT22;7454;51.256;8.176;2023-09-30T14:12:31;16.30;74.90
14727;DHT22;7454;51.256;8.176;2023-09-30T14:14:57;16.30;75.00
14727;DHT22;7454;51.256;8.176;2023-09-30T14:17:23;16.40;75.00
14727;DHT22;7454;51.256;8.176;2023-09-30T14:19:48;16.20;74.70
14727;DHT22;7454;51.256;8.176;2023-09-30T14:22:15;16.20;74.60
14727;DHT22;7454;51.256;8.176;2023-09-30T14:24:40;16.20;74.80
14727;DHT22;7454;51.256;8.176;2023-09-30T14:27:06;16.20;74.70
14727;DHT22;7454;51.256;8.176;2023-09-30T14:29:32;16.20;74.70
14727;DHT22;7454;51.256;8.176;2023-09-30T14:31:58;16.20;75.20
14727;DHT22;7454;51.256;8.176;2023-09-30T14:34:24;16.20;74.80
14727;DHT22;7454;51.256;8.176;2023-09-30T14:36:51;16.20;74.60
14727;DHT22;7454;51.256;8.176;2023-09-30T14:39:17;16.00;74.50
14727;DHT22;7454;51.256;8.176;2023-09-30T14:41:43;16.20;74.60
14727;DHT22;7454;51.256;8.176;2023-09-30T14:44:10;16.20;74.80
14727;DHT22;7454;51.256;8.176;2023-09-30T14:46:40;16.00;74.80
14727;DHT22;7454;51.256;8.176;2023-09-30T14:49:06;16.10;74.90
14727;DHT22;7454;51.256;8.176;2023-09-30T14:51:32;16.00;74.70
14727;DHT22;7454;51.256;8.176;2023-09-30T14:53:59;16.00;74.80
14727;DHT22;7454;51.256;8.176;2023-09-30T14:56:24;16.10;74.70
14727;DHT22;7454;51.256;8.176;2023-09-30T14:58:50;16.10;74.60
14727;DHT22;7454;51.256;8.176;2023-09-30T15:01:15;16.10;74.60
14727;DHT22;7454;51.256;8.176;2023-09-30T15:03:41;16.10;74.70
14727;DHT22;7454;51.256;8.176;2023-09-30T15:06:09;16.10;74.70
14727;DHT22;7454;51.256;8.176;2023-09-30T15:08:35;16.10;74.80
14727;DHT22;7454;51.256;8.176;2023-09-30T15:11:01;16.10;74.90
14727;DHT22;7454;51.256;8.176;2023-09-30T15:13:27;16.10;74.80
14727;DHT22;7454;51.256;8.176;2023-09-30T15:15:53;16.10;74.80
14727;DHT22;7454;51.256;8.176;2023-09-30T15:18:19;16.10;74.60
14727;DHT22;7454;51.256;8.176;2023-09-30T15:20:45;16.10;74.70
14727;DHT22;7454;51.256;8.176;2023-09-30T15:23:12;16.10;74.50
14727;DHT22;7454;51.256;8.176;2023-09-30T15:25:39;16.30;74.60
14727;DHT22;7454;51.256;8.176;2023-09-30T15:28:06;16.10;74.80
14727;DHT22;7454;51.256;8.176;2023-09-30T15:30:33;16.00;74.60
14727;DHT22;7454;51.256;8.176;2023-09-30T15:32:59;16.00;74.40
14727;DHT22;7454;51.256;8.176;2023-09-30T15:35:25;15.90;74.50
14727;DHT22;7454;51.256;8.176;2023-09-30T15:37:52;15.80;74.50
14727;DHT22;7454;51.256;8.176;2023-09-30T15:40:18;15.90;74.80
14727;DHT22;7454;51.256;8.176;2023-09-30T15:42:43;15.90;75.00
14727;DHT22;7454;51.256;8.176;2023-09-30T15:45:11;15.70;75.30
14727;DHT22;7454;51.256;8.176;2023-09-30T15:47:38;15.90;75.30
14727;DHT22;7454;51.256;8.176;2023-09-30T15:50:04;15.80;75.60
14727;DHT22;7454;51.256;8.176;2023-09-30T15:52:31;15.70;75.80
14727;DHT22;7454;51.256;8.176;2023-09-30T15:54:57;15.60;75.90
14727;DHT22;7454;51.256;8.176;2023-09-30T15:57:23;15.60;76.10
14727;DHT22;7454;51.256;8.176;2023-09-30T15:59:48;15.50;76.20
14727;DHT22;7454;51.256;8.176;2023-09-30T16:02:14;15.50;76.10
14727;DHT22;7454;51.256;8.176;2023-09-30T16:04:41;15.40;76.10
14727;DHT22;7454;51.256;8.176;2023-09-30T16:07:07;15.40;76.20